Flight Track Log - Related Links

Times and Time Zones

All times are in EDT time to prevent confusion due to time zone crossing. See the EGF3514 flight status page for this flight to view local times or setup timezone preferences in your user account.

Time Position Orientation Groundspeed Altitude Reporting Facility
EDT Latitude Longitude Course Direction KTS MPH feet Rate Location/Type
Sun 06:18:00 PM 29.1286 -81.2683 165° South  Level Estimated
Sun 06:19:00 PM 29.0432 -81.2424 165° South  Level Estimated
Sun 06:20:00 PM 28.9578 -81.2166 165° South  Level Estimated
Sun 06:21:00 PM 28.8724 -81.1909 165° South  Level Estimated
Sun 06:22:00 PM 28.7870 -81.1652 165° South  Level Estimated
Sun 06:23:00 PM 28.7016 -81.1395 165° South  Level Estimated
Sun 06:24:00 PM 28.6162 -81.1138 165° South  Level Estimated
Sun 06:25:00 PM 28.5308 -81.0882 165° South  Level Estimated
Sun 06:26:00 PM 28.4453 -81.0627 165° South  Level Estimated
Sun 06:27:00 PM 28.3599 -81.0372 165° South  Level Estimated
Sun 06:28:00 PM 28.2745 -81.0117 165° South  Level Estimated
Sun 06:29:00 PM 28.1891 -80.9863 165° South  Level Estimated
Sun 06:30:00 PM 28.1036 -80.9609 165° South  Level Estimated
Sun 06:31:00 PM 28.0182 -80.9355 165° South  Level Estimated
Sun 06:32:00 PM 27.9327 -80.9102 165° South  Level Estimated
Sun 06:33:00 PM 27.8473 -80.8850 165° South  Level Estimated
Sun 06:34:00 PM 27.7618 -80.8597 165° South  Level Estimated
Sun 06:35:00 PM 27.6763 -80.8346 165° South  Level Estimated
Sun 06:36:00 PM 27.5909 -80.8094 165° South  Level Estimated
Sun 06:37:00 PM 27.5054 -80.7843 165° South  Level Estimated
Sun 06:38:00 PM 27.4199 -80.7592 165° South  Level Estimated
Sun 06:39:00 PM 27.3344 -80.7342 165° South  Level Estimated
Sun 06:40:00 PM 27.2490 -80.7092 165° South  Level Estimated
Sun 06:41:00 PM 27.1635 -80.6842 165° South  Level Estimated
Sun 06:42:00 PM 27.0780 -80.6593 165° South  Level Estimated
Sun 06:43:00 PM 26.9925 -80.6345 165° South  Level Estimated
Sun 06:44:00 PM 26.9070 -80.6096 165° South  Level Estimated
Sun 06:45:00 PM 26.8215 -80.5848 165° South  Level Estimated
Sun 06:46:00 PM 26.7360 -80.5600 165° South  Level Estimated
Sun 06:47:00 PM 26.6504 -80.5353 166° South  Level Estimated
Sun 06:48:00 PM 26.5649 -80.5106 166° South  Level Estimated
Sun 06:49:00 PM 26.4794 -80.4860 166° South  Level Estimated
Sun 06:50:00 PM 26.3939 -80.4613 166° South  Level Estimated
Sun 06:51:00 PM 26.3083 -80.4368 166° South  Level Estimated
Sun 06:52:00 PM 26.2228 -80.4122 166° South  Level Estimated
Sun 06:53:00 PM 26.1373 -80.3877 166° South  Level Estimated
Sun 06:54:00 PM 26.0517 -80.3632 166° South  Level Estimated
Sun 06:55:00 PM 25.9662 -80.3388 166° South  Level Estimated
Sun 06:56:00 PM 25.8806 -80.3144 166° South  Level Estimated
Sun 06:57:00 PM 25.7954 -80.2901 166° South  Level Estimated
Sun 06:58:00 PM 25.7954 -80.2901 North  Level Estimated
Sun 06:59:00 PM 25.7954 -80.2901 North  Level Estimated
Sun 07:00:00 PM 25.7954 -80.2901 North  Level Estimated
Sun 07:01:00 PM 25.7954 -80.2901 North  Level Estimated
Sun 07:02:00 PM 25.7954 -80.2901 North  Level Estimated
Sun 07:03:00 PM 25.7954 -80.2901 North  Level Estimated
Sun 07:04:00 PM 25.7954 -80.2901 North  Level Estimated
Sun 07:05:00 PM 25.7954 -80.2901 North  Level Estimated
Sun 07:06:00 PM 25.7954 -80.2901 North  Level Estimated
Sun 07:07:00 PM 25.7954 -80.2901 North  Level Estimated
Sun 07:08:00 PM 25.7954 -80.2901 North  Level Estimated
Sun 07:09:00 PM 25.7954 -80.2901 North  Level Estimated
Sun 07:10:00 PM 25.7954 -80.2901 North  Level Estimated
Sun 07:11:00 PM 25.7954 -80.2901 North  Level Estimated
Sun 07:12:00 PM 25.7954 -80.2901 North  Level Estimated
Sun 07:13:00 PM 25.7954 -80.2901 North  Level Estimated

Login

Don't have an account? Register now (free) for customized features, flight alerts, and more!